Ayrshire, Iowa
Current Conditions -  °F | °C
As of 9:53 PM on Tuesday 25 Nov 2014 (Local Time) from KSPW Reporting Station
Overcast Overcast  
Wind Chill: -6°   Ceiling: 6000
Heat Index: -1°   Visibility: 10mi
Dew Point: -8°   Wind: 13mph
Humidity: 57%   Direction: 140°SE
Pressure: 29.9"   Gusts: NA
Location:  43.04°N, 94.83°W
Report Text: KSPW 260353Z AUTO 14011KT 10SM SCT047 OVC060 M01/M08 A2990 RMK AO2 SLP143 T10061083 TSNO
Loading
Personal Weather Stations






























Interactive Weather Map New forecast layout! Learn more

10-Day Weather Forecast

Advertisements
Track Severe Weather on mobile